Heemstede, Netherlands
Current Conditions -  °F | °C
As of 11:25 AM on Monday 20 Oct 2014 (Local Time) from EHAM Reporting Station
Scattered Clouds Scattered Clouds  
Wind Chill: 61°   Ceiling: Unl
Heat Index: 61°   Visibility: 6mi
Dew Point: 54°   Wind: 16mph
Humidity: 77%   Direction: 260°W
Pressure: 29.97"   Gusts: NA
Location:  52.35°N, 4.62°E
Report Text: EHAM 200925Z 26014KT 9999 FEW020TCU SCT045 16/12 Q1015 NOSIG
Loading
Personal Weather Stations






























Interactive Weather Map
Tropical Storm Tracking
New forecast layout! Learn more

10-Day Weather Forecast

Advertisements
Track Severe Weather on mobile